Time;durP1;ratioP1;P1;durP2;ratioP2;P2;SDS_P1;SDS_P2;PMS_P1;PMS_P2;Temp;Humidity;BMP_temperature;BMP_pressure;BME280_temperature;BME280_humidity;BME280_pressure;Samples;Min_cycle;Max_cycle;Signal;HPM_P1;HPM_P2
2023/09/24 00:00:34;;;;;;;11.95;7.35;;;;;;;19.07;73.00;100600.38;1820265;79;21070;-77
2023/09/24 00:03:05;;;;;;;15.28;8.60;;;;;;;19.05;73.10;100604.49;1820272;79;21034;-77
2023/09/24 00:05:40;;;;;;;13.15;8.18;;;;;;;19.00;73.24;100603.30;1820209;79;21181;-79
2023/09/24 00:08:10;;;;;;;11.05;8.03;;;;;;;18.99;73.37;100604.94;1820119;79;21101;-78
2023/09/24 00:10:39;;;;;;;15.40;8.55;;;;;;;18.96;73.49;100601.27;1820361;79;21007;-78
2023/09/24 00:13:09;;;;;;;15.93;8.35;;;;;;;18.93;73.54;100605.39;1820401;79;21047;-78
2023/09/24 00:15:38;;;;;;;13.03;7.90;;;;;;;18.91;73.62;100611.73;1820260;79;21058;-77
2023/09/24 00:18:08;;;;;;;14.07;7.95;;;;;;;18.89;73.71;100611.14;1820166;79;21451;-78
2023/09/24 00:20:37;;;;;;;13.45;8.55;;;;;;;18.88;73.84;100615.55;1820146;79;21019;-78
2023/09/24 00:23:06;;;;;;;13.40;8.43;;;;;;;18.85;73.99;100618.24;1820401;79;21078;-77
2023/09/24 00:25:35;;;;;;;17.67;8.48;;;;;;;18.84;74.12;100617.10;1820199;79;21050;-76
2023/09/24 00:28:05;;;;;;;12.65;8.40;;;;;;;18.83;74.23;100619.03;1820339;79;21416;-79
2023/09/24 00:30:36;;;;;;;13.10;8.78;;;;;;;18.81;74.32;100617.59;1820227;79;21431;-78
2023/09/24 00:33:05;;;;;;;29.63;9.58;;;;;;;18.81;74.40;100618.98;1820323;79;21019;-78
2023/09/24 00:35:35;;;;;;;16.20;8.00;;;;;;;18.81;74.44;100620.37;1820373;79;20979;-78
2023/09/24 00:38:07;;;;;;;11.20;8.03;;;;;;;18.78;74.44;100622.25;1820135;79;21450;-78
2023/09/24 00:40:37;;;;;;;12.80;8.03;;;;;;;18.74;74.52;100622.45;1820317;79;21011;-77
2023/09/24 00:43:32;;;;;;;13.50;8.28;;;;;;;18.69;74.72;100621.25;1820246;79;21019;-76
2023/09/24 00:46:07;;;;;;;12.85;8.20;;;;;;;18.67;74.91;100620.66;1820248;79;21031;-77
2023/09/24 00:48:35;;;;;;;17.90;8.60;;;;;;;18.65;75.14;100620.06;1820273;79;21023;-78
2023/09/24 00:51:19;;;;;;;15.30;8.80;;;;;;;18.63;75.28;100622.23;1820347;79;21047;-77
2023/09/24 00:53:53;;;;;;;12.30;8.43;;;;;;;18.59;75.37;100618.23;1820198;79;21062;-77
2023/09/24 00:56:22;;;;;;;12.13;7.95;;;;;;;18.56;75.50;100618.72;1820446;79;21043;-77
2023/09/24 00:58:51;;;;;;;14.95;8.63;;;;;;;18.50;75.62;100624.41;1820376;79;21023;-77
2023/09/24 01:01:22;;;;;;;13.03;8.75;;;;;;;18.44;75.91;100622.61;1820198;79;21011;-77
2023/09/24 01:03:52;;;;;;;16.05;7.85;;;;;;;18.39;76.16;100624.73;1820169;79;21007;-78
2023/09/24 01:06:23;;;;;;;13.98;8.28;;;;;;;18.36;76.39;100615.50;1820089;79;21043;-78
2023/09/24 01:08:53;;;;;;;15.93;8.65;;;;;;;18.37;76.51;100621.36;1820345;79;21066;-77
2023/09/24 01:11:24;;;;;;;11.15;8.68;;;;;;;18.35;76.59;100622.14;1820099;79;21043;-77
2023/09/24 01:13:53;;;;;;;13.85;8.50;;;;;;;18.32;76.75;100617.92;1820309;79;21051;-77
2023/09/24 01:16:22;;;;;;;14.55;8.63;;;;;;;18.29;76.85;100623.12;1820272;79;21035;-78
2023/09/24 01:18:53;;;;;;;14.73;8.68;;;;;;;18.25;77.03;100629.69;1820282;79;21422;-75
2023/09/24 01:21:23;;;;;;;15.48;9.30;;;;;;;18.23;77.16;100625.48;1820335;79;21023;-79
2023/09/24 01:23:52;;;;;;;15.35;8.70;;;;;;;18.20;77.28;100619.84;1820323;79;21043;-77
2023/09/24 01:26:24;;;;;;;13.95;8.33;;;;;;;18.19;77.45;100627.02;1819027;77;21022;-76
2023/09/24 01:28:53;;;;;;;15.23;8.55;;;;;;;18.19;77.63;100625.62;1817867;79;21049;-77
2023/09/24 01:31:22;;;;;;;18.10;8.20;;;;;;;18.20;77.74;100621.23;1820365;79;20999;-76
2023/09/24 01:33:51;;;;;;;12.70;7.95;;;;;;;18.23;77.73;100626.86;1721183;83;21068;-77
2023/09/24 01:36:21;;;;;;;15.30;8.83;;;;;;;18.25;77.75;100621.91;1710647;84;21088;-76
2023/09/24 01:38:53;;;;;;;14.93;9.03;;;;;;;18.27;77.73;100617.81;1710631;84;21480;-77
2023/09/24 01:41:25;;;;;;;13.80;8.55;;;;;;;18.26;77.60;100620.83;1710857;84;21064;-77
2023/09/24 01:43:53;;;;;;;12.58;8.20;;;;;;;18.25;77.62;100621.91;1710829;84;21048;-77
2023/09/24 01:46:22;;;;;;;11.57;7.60;;;;;;;18.24;77.61;100620.23;1710691;84;21017;-77
2023/09/24 01:48:54;;;;;;;14.65;8.20;;;;;;;18.22;77.65;100623.78;1710773;84;21028;-77
2023/09/24 01:51:23;;;;;;;14.73;8.83;;;;;;;18.19;77.75;100621.47;1734205;79;21055;-78
2023/09/24 01:53:53;;;;;;;14.03;8.70;;;;;;;18.17;77.82;100613.94;1820257;79;21043;-78
2023/09/24 01:56:23;;;;;;;11.65;8.43;;;;;;;18.15;77.94;100617.48;1820432;79;21031;-78
2023/09/24 01:58:52;;;;;;;15.30;8.88;;;;;;;18.14;78.02;100617.19;1820441;79;21015;-79
2023/09/24 02:01:22;;;;;;;14.58;8.63;;;;;;;18.12;78.16;100622.14;1820370;79;21055;-77
2023/09/24 02:03:57;;;;;;;12.03;8.38;;;;;;;18.11;78.25;100621.84;1820389;79;21058;-78
2023/09/24 02:06:24;;;;;;;16.27;8.88;;;;;;;18.09;78.31;100627.63;1820139;78;21011;-77
2023/09/24 02:08:53;;;;;;;12.28;8.28;;;;;;;18.10;78.32;100625.69;1820363;79;21003;-74
2023/09/24 02:11:22;;;;;;;16.57;10.28;;;;;;;18.11;78.31;100628.77;1820560;79;21051;-77
2023/09/24 02:13:51;;;;;;;15.70;8.63;;;;;;;18.10;78.27;100636.24;1820390;79;21420;-76
2023/09/24 02:16:20;;;;;;;13.68;8.50;;;;;;;18.09;78.32;100630.94;1820508;79;21007;-76
2023/09/24 02:18:49;;;;;;;13.55;8.25;;;;;;;18.05;78.41;100639.74;1820185;79;21478;-77
2023/09/24 02:21:19;;;;;;;13.83;8.63;;;;;;;17.99;78.53;100635.16;1820253;79;21058;-77
2023/09/24 02:23:48;;;;;;;13.65;8.50;;;;;;;17.95;78.69;100642.81;1820595;79;21053;-79
2023/09/24 02:26:18;;;;;;;13.45;9.60;;;;;;;17.93;78.92;100649.14;1820421;79;21007;-77
2023/09/24 02:28:47;;;;;;;12.53;8.45;;;;;;;17.93;79.05;100648.59;1809957;79;21074;-77
2023/09/24 02:31:16;;;;;;;12.82;8.90;;;;;;;17.93;79.08;100644.98;1806026;79;21016;-78
2023/09/24 02:33:47;;;;;;;14.63;8.20;;;;;;;17.93;79.07;100647.75;1806046;79;21046;-77
2023/09/24 02:36:17;;;;;;;14.15;9.10;;;;;;;17.92;79.07;100649.69;1806023;79;21087;-78
2023/09/24 02:38:47;;;;;;;14.87;8.48;;;;;;;17.92;79.08;100643.30;1806092;79;21742;-77
2023/09/24 02:41:17;;;;;;;13.62;8.33;;;;;;;17.90;79.09;100641.30;1806101;79;21111;-78
2023/09/24 02:43:48;;;;;;;12.95;8.63;;;;;;;17.88;79.17;100640.16;1805939;79;21000;-79
2023/09/24 02:46:19;;;;;;;14.95;9.03;;;;;;;17.85;79.22;100635.63;1805944;79;21055;-78
2023/09/24 02:48:51;;;;;;;13.78;8.60;;;;;;;17.83;79.38;100637.80;1806127;79;21493;-78
2023/09/24 02:51:20;;;;;;;14.30;9.48;;;;;;;17.82;79.48;100638.89;1806104;79;21000;-78
2023/09/24 02:53:50;;;;;;;11.78;8.38;;;;;;;17.78;79.63;100637.13;1806107;79;21027;-78
2023/09/24 02:56:19;;;;;;;16.30;9.00;;;;;;;17.77;79.72;100634.06;1805940;79;21091;-77
2023/09/24 02:58:51;;;;;;;18.30;9.00;;;;;;;17.74;79.77;100632.61;1806158;79;21048;-78
2023/09/24 03:01:20;;;;;;;17.10;8.90;;;;;;;17.72;79.97;100633.94;1806030;79;20976;-78
2023/09/24 03:03:50;;;;;;;16.97;9.33;;;;;;;17.72;80.05;100639.48;1806268;79;21003;-76
2023/09/24 03:06:20;;;;;;;13.90;8.98;;;;;;;17.74;80.10;100637.31;1806004;79;21015;-78
2023/09/24 03:08:50;;;;;;;15.28;9.18;;;;;;;17.70;80.17;100638.88;1805990;79;21039;-77
2023/09/24 03:11:20;;;;;;;14.07;9.00;;;;;;;17.64;80.42;100634.25;1806003;79;21063;-77
2023/09/24 03:13:49;;;;;;;10.93;8.30;;;;;;;17.62;80.68;100640.58;1806208;79;21063;-77
2023/09/24 03:16:19;;;;;;;14.95;9.43;;;;;;;17.61;80.80;100639.73;1805957;79;21027;-77
2023/09/24 03:18:50;;;;;;;17.52;9.23;;;;;;;17.62;80.93;100645.58;1806024;79;21012;-77
2023/09/24 03:21:20;;;;;;;13.53;9.40;;;;;;;17.62;80.98;100649.73;1805944;79;21011;-77
2023/09/24 03:23:49;;;;;;;15.78;8.98;;;;;;;17.63;80.98;100658.89;1806206;79;21043;-78
2023/09/24 03:26:19;;;;;;;17.00;9.60;;;;;;;17.62;80.94;100662.74;1806135;79;21083;-78
2023/09/24 03:28:49;;;;;;;13.15;9.10;;;;;;;17.61;80.90;100670.21;1805962;79;21536;-78
2023/09/24 03:31:20;;;;;;;14.78;9.33;;;;;;;17.61;80.84;100670.21;1709315;83;21052;-78
2023/09/24 03:33:51;;;;;;;17.00;9.03;;;;;;;17.58;80.88;100662.38;1709306;84;21029;-77
2023/09/24 03:36:22;;;;;;;13.83;8.75;;;;;;;17.56;80.90;100666.47;1709117;84;21069;-75
2023/09/24 03:38:52;;;;;;;18.90;8.85;;;;;;;17.49;81.03;100665.15;1709234;84;21134;-78
2023/09/24 03:41:21;;;;;;;14.35;9.08;;;;;;;17.45;81.23;100673.63;1709402;84;21498;-79
2023/09/24 03:43:50;;;;;;;17.87;8.83;;;;;;;17.41;81.42;100671.03;1709162;84;21120;-78
2023/09/24 03:46:20;;;;;;;14.50;9.33;;;;;;;17.43;81.55;100684.95;1709145;84;21097;-78
2023/09/24 03:48:50;;;;;;;14.47;8.98;;;;;;;17.46;81.40;100680.02;1732281;79;21032;-78
2023/09/24 03:51:20;;;;;;;16.70;9.10;;;;;;;17.48;81.13;100682.86;1805960;79;21595;-78
2023/09/24 03:53:51;;;;;;;15.58;8.85;;;;;;;17.48;80.96;100685.63;1806176;79;21016;-79
2023/09/24 03:56:21;;;;;;;16.93;9.40;;;;;;;17.50;80.78;100689.55;1806174;79;21008;-78
2023/09/24 03:58:50;;;;;;;15.32;9.30;;;;;;;17.50;80.54;100685.39;1805926;79;21485;-78
2023/09/24 04:01:19;;;;;;;15.48;8.75;;;;;;;17.50;80.47;100689.55;1806005;79;21067;-78
2023/09/24 04:03:49;;;;;;;19.30;8.90;;;;;;;17.52;80.29;100695.70;1806002;79;21023;-78
2023/09/24 04:06:19;;;;;;;12.85;8.45;;;;;;;17.49;80.26;100694.78;1805883;79;21055;-77
2023/09/24 04:08:49;;;;;;;18.65;8.93;;;;;;;17.48;80.33;100695.86;1805924;79;21004;-78
2023/09/24 04:11:19;;;;;;;13.08;8.73;;;;;;;17.47;80.34;100689.48;1806205;79;21478;-77
2023/09/24 04:13:49;;;;;;;12.78;8.85;;;;;;;17.50;80.35;100689.55;1806220;79;21032;-78
2023/09/24 04:16:19;;;;;;;15.55;9.30;;;;;;;17.52;80.20;100691.54;1805898;79;21198;-77
2023/09/24 04:18:48;;;;;;;14.28;8.98;;;;;;;17.51;80.21;100698.16;1806002;79;20984;-78
2023/09/24 04:21:18;;;;;;;12.07;8.55;;;;;;;17.51;80.25;100700.93;1806012;79;21071;-78
2023/09/24 04:23:48;;;;;;;14.45;8.70;;;;;;;17.54;80.23;100708.77;1805991;79;21004;-80
2023/09/24 04:26:20;;;;;;;15.35;9.10;;;;;;;17.57;80.07;100700.86;1805895;79;21505;-78
2023/09/24 04:28:51;;;;;;;13.88;8.50;;;;;;;17.58;79.93;100703.94;1801466;79;21514;-76
2023/09/24 04:31:20;;;;;;;14.85;8.83;;;;;;;17.60;79.85;100715.63;1797772;80;21004;-78
2023/09/24 04:33:49;;;;;;;13.85;9.28;;;;;;;17.63;79.77;100722.09;1797813;80;21043;-79
2023/09/24 04:36:18;;;;;;;14.83;8.68;;;;;;;17.64;79.82;100725.70;1797694;79;21023;-78
2023/09/24 04:38:48;;;;;;;18.65;9.25;;;;;;;17.65;79.88;100734.32;1797902;80;21004;-79
2023/09/24 04:41:17;;;;;;;17.30;8.85;;;;;;;17.68;79.91;100733.34;1797998;80;20989;-79
2023/09/24 04:43:47;;;;;;;15.53;9.15;;;;;;;17.71;79.88;100740.34;1797877;80;20980;-76
2023/09/24 04:46:17;;;;;;;19.80;9.18;;;;;;;17.73;79.77;100739.56;1798099;80;21012;-80
2023/09/24 04:48:47;;;;;;;16.87;9.70;;;;;;;17.76;79.66;100742.40;1797925;79;21024;-78
2023/09/24 04:51:18;;;;;;;15.35;9.23;;;;;;;17.76;79.36;100739.09;1797770;80;21024;-76
2023/09/24 04:53:46;;;;;;;21.33;10.23;;;;;;;17.78;79.24;100743.85;1797778;79;21051;-78
2023/09/24 04:56:16;;;;;;;15.50;9.45;;;;;;;17.82;79.06;100745.61;1797768;80;21520;-77
2023/09/24 04:58:46;;;;;;;13.83;9.30;;;;;;;17.86;78.77;100750.44;1797904;80;21059;-78
2023/09/24 05:01:15;;;;;;;14.53;9.08;;;;;;;17.93;78.50;100761.42;1797976;80;21009;-77
2023/09/24 05:03:47;;;;;;;23.15;10.32;;;;;;;17.98;78.28;100760.17;1797801;79;21039;-77
2023/09/24 05:06:18;;;;;;;15.85;9.70;;;;;;;18.04;77.96;100768.39;1780230;80;21063;-77
2023/09/24 05:08:48;;;;;;;16.15;10.23;;;;;;;18.08;77.73;100764.59;1797730;80;21467;-74
2023/09/24 05:11:16;;;;;;;19.17;10.03;;;;;;;18.14;77.52;100771.11;1797761;80;21008;-78
2023/09/24 05:13:45;;;;;;;15.25;9.70;;;;;;;18.16;77.28;100774.50;1797798;80;21060;-78
2023/09/24 05:16:15;;;;;;;16.80;9.80;;;;;;;18.17;77.15;100783.96;1797687;80;21059;-76
2023/09/24 05:18:45;;;;;;;16.57;10.10;;;;;;;18.20;77.05;100780.72;1798012;80;21009;-77
2023/09/24 05:21:17;;;;;;;16.73;9.70;;;;;;;18.25;76.95;100780.03;1798257;80;20996;-78
2023/09/24 05:23:46;;;;;;;18.17;9.68;;;;;;;18.30;76.77;100778.77;1798161;79;21075;-76
2023/09/24 05:26:16;;;;;;;13.78;9.30;;;;;;;18.35;76.54;100778.89;1798243;80;21052;-77
2023/09/24 05:28:44;;;;;;;16.70;10.08;;;;;;;18.40;76.27;100785.95;1798886;79;21531;-77
2023/09/24 05:31:15;;;;;;;17.98;9.73;;;;;;;18.45;75.97;100788.86;1803046;79;21000;-77
2023/09/24 05:33:44;;;;;;;17.95;9.65;;;;;;;18.49;75.73;100785.91;1803152;79;21083;-78
2023/09/24 05:36:14;;;;;;;14.55;9.05;;;;;;;18.55;75.42;100784.09;1802997;79;21055;-77
2023/09/24 05:38:43;;;;;;;19.82;9.43;;;;;;;18.58;75.05;100781.68;1803150;79;21064;-78
2023/09/24 05:41:12;;;;;;;14.40;8.80;;;;;;;18.62;74.82;100784.31;1802932;79;21392;-77
2023/09/24 05:43:44;;;;;;;15.25;8.80;;;;;;;18.65;74.53;100776.89;1802891;79;21119;-76
2023/09/24 05:46:11;;;;;;;18.57;9.13;;;;;;;18.71;74.19;100783.41;1802988;79;21086;-78
2023/09/24 05:48:41;;;;;;;16.82;9.45;;;;;;;18.75;73.79;100779.59;1802828;79;21419;-76
2023/09/24 05:51:10;;;;;;;15.50;9.60;;;;;;;18.78;73.47;100791.06;1802889;79;21040;-78
2023/09/24 05:53:41;;;;;;;19.82;9.18;;;;;;;18.82;73.04;100787.26;1802890;79;21008;-77
2023/09/24 05:56:11;;;;;;;13.75;9.25;;;;;;;18.84;72.58;100785.92;1802832;79;21537;-76
2023/09/24 05:58:41;;;;;;;20.65;9.33;;;;;;;18.90;72.37;100785.53;1802948;79;20996;-77
2023/09/24 06:01:15;;;;;;;17.07;9.58;;;;;;;18.95;72.23;100792.05;1802819;79;21004;-77
2023/09/24 06:03:44;;;;;;;15.00;8.45;;;;;;;18.99;72.06;100785.45;1802866;79;21019;-77
2023/09/24 06:06:14;;;;;;;15.38;9.28;;;;;;;19.03;71.94;100788.05;1802772;79;21447;-77
2023/09/24 06:08:44;;;;;;;15.65;9.30;;;;;;;19.09;71.87;100793.17;1802854;79;21040;-78
2023/09/24 06:11:13;;;;;;;17.55;9.40;;;;;;;19.11;71.61;100789.06;1803144;79;20984;-78
2023/09/24 06:13:42;;;;;;;15.60;10.08;;;;;;;19.15;71.27;100793.58;1802933;79;21011;-77
2023/09/24 06:16:11;;;;;;;13.98;8.68;;;;;;;19.19;70.89;100798.41;1802833;79;21024;-79
2023/09/24 06:18:40;;;;;;;14.85;9.33;;;;;;;19.23;70.41;100798.75;1802869;79;21521;-77
2023/09/24 06:21:16;;;;;;;13.90;8.70;;;;;;;19.28;70.17;100802.48;1802846;79;21136;-78
2023/09/24 06:23:45;;;;;;;17.07;9.25;;;;;;;19.31;69.89;100804.77;1802918;79;21431;-79
2023/09/24 06:26:15;;;;;;;16.37;8.43;;;;;;;19.36;69.69;100808.20;1802997;79;21432;-77
2023/09/24 06:28:44;;;;;;;16.73;9.05;;;;;;;19.40;69.63;100799.67;1802476;79;21063;-77
2023/09/24 06:31:15;;;;;;;18.42;10.68;;;;;;;19.44;69.58;100798.09;1795311;79;21035;-77
2023/09/24 06:33:45;;;;;;;13.72;9.33;;;;;;;19.49;69.68;100795.96;1797968;80;21038;-77
2023/09/24 06:36:14;;;;;;;14.85;9.40;;;;;;;19.53;69.59;100793.05;1797958;79;21083;-79
2023/09/24 06:38:44;;;;;;;15.95;8.48;;;;;;;19.56;69.42;100796.19;1797805;80;21042;-77
2023/09/24 06:41:14;;;;;;;17.90;9.05;;;;;;;19.61;69.29;100796.83;1797826;80;21420;-77
2023/09/24 06:43:43;;;;;;;19.20;8.85;;;;;;;19.66;69.09;100800.25;1797712;79;21028;-77
2023/09/24 06:46:11;;;;;;;14.53;8.53;;;;;;;19.70;68.95;100800.90;1797801;80;21012;-78
2023/09/24 06:48:40;;;;;;;16.25;8.68;;;;;;;19.75;68.64;100797.38;1797822;80;21040;-78
2023/09/24 06:51:10;;;;;;;16.90;9.10;;;;;;;19.80;68.40;100803.88;1797854;80;21000;-78
2023/09/24 06:53:40;;;;;;;16.20;9.05;;;;;;;19.85;68.14;100810.08;1798060;80;21095;-77
2023/09/24 06:56:10;;;;;;;15.28;8.85;;;;;;;19.88;68.09;100810.43;1797775;79;21091;-78
2023/09/24 06:58:40;;;;;;;19.30;9.48;;;;;;;19.92;67.95;100810.23;1797782;79;21040;-79
2023/09/24 07:01:10;;;;;;;11.43;8.60;;;;;;;19.96;67.99;100814.74;1797956;79;21016;-78
2023/09/24 07:03:40;;;;;;;17.87;9.03;;;;;;;20.00;67.95;100813.70;1797871;79;21031;-76
2023/09/24 07:06:09;;;;;;;13.68;8.03;;;;;;;20.05;67.74;100812.41;1797163;80;21079;-75
2023/09/24 07:08:40;;;;;;;12.23;8.30;;;;;;;20.10;67.52;100810.55;1797262;79;21497;-75
2023/09/24 07:11:25;;;;;;;16.35;8.35;;;;;;;20.15;67.25;100810.65;1797742;80;21039;-71
2023/09/24 07:13:55;;;;;;;16.12;8.68;;;;;;;20.22;67.26;100809.13;1756573;82;21072;-71
2023/09/24 07:16:25;;;;;;;16.00;8.50;;;;;;;20.28;67.02;100815.08;1797771;79;21028;-76
2023/09/24 07:18:56;;;;;;;14.20;8.35;;;;;;;20.34;66.65;100815.46;1797697;80;21083;-76
2023/09/24 07:21:28;;;;;;;14.15;9.00;;;;;;;20.39;66.40;100813.31;1797858;79;21012;-82
2023/09/24 07:24:00;;;;;;;14.35;8.45;;;;;;;20.43;66.15;100811.19;1797436;79;21059;-81
2023/09/24 07:26:30;;;;;;;18.05;10.18;;;;;;;20.48;66.03;100807.09;1798137;80;21522;-83
2023/09/24 07:29:00;;;;;;;12.13;8.33;;;;;;;20.52;66.07;100808.28;1787942;79;21016;-80
2023/09/24 07:31:32;;;;;;;14.30;8.35;;;;;;;20.57;65.79;100808.36;1826033;77;21098;-81
2023/09/24 07:34:01;;;;;;;13.70;8.30;;;;;;;20.63;65.30;100811.23;1802204;78;21074;-80
2023/09/24 07:36:32;;;;;;;13.20;7.87;;;;;;;20.70;64.68;100817.47;1721610;82;21047;-81
2023/09/24 07:39:04;;;;;;;14.73;8.63;;;;;;;20.76;64.37;100815.90;1820404;79;21067;-80
2023/09/24 07:41:33;;;;;;;12.60;8.15;;;;;;;20.84;64.10;100810.48;1816142;78;21067;-80
2023/09/24 07:44:03;;;;;;;13.95;8.28;;;;;;;20.94;63.92;100812.57;1819778;79;21027;-80
2023/09/24 07:46:32;;;;;;;14.38;8.28;;;;;;;21.19;63.63;100804.56;1819483;79;21481;-80
2023/09/24 07:49:05;;;;;;;14.73;8.03;;;;;;;21.62;62.95;100800.99;1754678;81;21068;-78
2023/09/24 07:51:33;;;;;;;15.43;7.62;;;;;;;22.08;62.11;100791.74;1811334;79;21087;-80
2023/09/24 07:54:03;;;;;;;15.53;7.62;;;;;;;22.57;60.58;100785.50;1811775;79;21035;-81
2023/09/24 07:56:34;;;;;;;14.30;7.67;;;;;;;23.05;58.98;100780.28;1811993;79;21039;-79
2023/09/24 07:59:03;;;;;;;11.18;7.53;;;;;;;23.57;57.63;100780.01;1811635;79;21035;-80
2023/09/24 08:01:31;;;;;;;15.15;7.55;;;;;;;24.11;56.10;100783.23;1811517;79;21516;-82
2023/09/24 08:04:08;;;;;;;15.25;7.12;;;;;;;24.65;53.69;100791.95;1848181;77;22118;-80
2023/09/24 08:06:37;;;;;;;11.38;6.83;;;;;;;25.00;52.74;100788.03;1795869;79;21126;-81
2023/09/24 08:09:06;;;;;;;14.83;7.53;;;;;;;25.35;51.39;100789.31;1788432;80;21542;-79
2023/09/24 08:11:37;;;;;;;13.95;7.22;;;;;;;25.69;50.24;100785.85;1785687;80;21721;-76
2023/09/24 08:14:06;;;;;;;15.75;6.78;;;;;;;26.00;49.31;100791.55;1788797;80;21180;-77
2023/09/24 08:16:35;;;;;;;11.33;7.00;;;;;;;26.31;47.63;100786.58;1788508;80;21111;-76
2023/09/24 08:19:05;;;;;;;13.72;6.67;;;;;;;26.54;46.60;100786.42;1788508;79;21103;-78
2023/09/24 08:21:35;;;;;;;14.18;6.92;;;;;;;26.73;45.88;100794.98;1788380;80;21174;-72
2023/09/24 08:24:05;;;;;;;17.23;7.40;;;;;;;26.81;45.38;100788.72;1788218;80;21103;-76
2023/09/24 08:26:35;;;;;;;13.48;7.12;;;;;;;26.86;45.38;100778.83;1788404;80;21604;-79
2023/09/24 08:29:06;;;;;;;13.20;6.75;;;;;;;27.08;44.74;100774.12;1788537;80;21139;-77
2023/09/24 08:31:37;;;;;;;13.32;7.42;;;;;;;27.21;43.40;100773.97;1788202;80;21126;-76
2023/09/24 08:34:06;;;;;;;11.73;6.78;;;;;;;27.27;43.91;100778.40;1769123;80;21534;-79
2023/09/24 08:36:36;;;;;;;14.63;6.97;;;;;;;27.46;43.77;100784.38;1788319;80;21126;-74
2023/09/24 08:39:08;;;;;;;13.32;7.00;;;;;;;27.59;43.17;100786.19;1791648;79;21762;-77
2023/09/24 08:41:44;;;;;;;16.60;6.78;;;;;;;27.62;43.19;100775.76;1753692;82;21131;-76
2023/09/24 08:44:17;;;;;;;13.08;6.90;;;;;;;27.54;43.45;100784.84;1754147;82;21161;-77
2023/09/24 08:46:47;;;;;;;16.07;6.60;;;;;;;27.46;43.33;100780.16;1753813;82;21133;-77
2023/09/24 08:49:17;;;;;;;15.23;6.65;;;;;;;27.40;43.29;100785.58;1753755;81;21605;-77
2023/09/24 08:51:46;;;;;;;15.72;6.72;;;;;;;27.28;43.27;100776.70;1753984;82;21182;-79
2023/09/24 08:54:16;;;;;;;11.10;6.85;;;;;;;27.17;43.65;100784.98;1753920;82;21159;-78
2023/09/24 08:56:46;;;;;;;16.65;7.50;;;;;;;27.08;43.89;100781.16;1754080;82;21103;-80
2023/09/24 08:59:16;;;;;;;14.07;6.90;;;;;;;26.98;44.16;100783.52;1753930;81;21126;-77
2023/09/24 09:01:53;;;;;;;14.10;6.95;;;;;;;26.91;44.68;100787.78;1753831;82;21158;-77
2023/09/24 09:04:22;;;;;;;10.05;6.17;;;;;;;26.80;44.68;100789.86;1661668;85;21146;-78
2023/09/24 09:06:52;;;;;;;15.95;6.85;;;;;;;26.65;44.62;100791.38;1689657;85;21142;-77
2023/09/24 09:09:27;;;;;;;53.90;9.15;;;;;;;26.58;44.35;100793.13;1711169;83;21185;-77
2023/09/24 09:11:56;;;;;;;12.13;6.42;;;;;;;26.58;44.35;100793.13;1724003;83;21249;-75
2023/09/24 09:14:35;;;;;;;12.53;6.70;;;;;;;26.52;44.66;100792.91;1723903;83;21577;-77
2023/09/24 09:17:04;;;;;;;10.32;6.37;;;;;;;26.46;44.68;100793.52;1723574;83;21149;-77
2023/09/24 09:19:56;;;;;;;11.78;6.35;;;;;;;26.38;44.82;100790.49;1723696;83;21173;-75
2023/09/24 09:22:29;;;;;;;14.75;6.78;;;;;;;26.31;45.01;100789.95;1753356;80;21124;-77
2023/09/24 09:25:06;;;;;;;11.18;6.58;;;;;;;26.26;45.29;100791.41;1721222;83;21660;-74
2023/09/24 09:27:40;;;;;;;;;;;;;;;26.23;45.28;100788.05;1723677;83;21188;-73
2023/09/24 09:30:19;;;;;;;11.83;6.45;;;;;;;26.16;45.34;100792.32;1733999;83;20182;-75
2023/09/24 09:32:49;;;;;;;16.67;6.17;;;;;;;26.10;45.52;100804.72;1721086;83;21638;-75
2023/09/24 09:35:18;;;;;;;13.03;6.60;;;;;;;26.06;45.64;100800.25;1721213;83;21130;-78
2023/09/24 09:37:47;;;;;;;17.98;6.33;;;;;;;26.03;45.71;100803.64;1721251;83;21131;-76
2023/09/24 09:40:18;;;;;;;11.60;5.95;;;;;;;26.02;45.92;100799.16;1738674;82;21136;-75
2023/09/24 09:42:47;;;;;;;14.73;6.25;;;;;;;26.03;45.87;100800.00;1750835;82;21142;-76
2023/09/24 09:45:16;;;;;;;14.60;5.90;;;;;;;26.03;45.94;100798.59;1751078;82;21122;-76
2023/09/24 09:48:00;;;;;;;13.28;6.33;;;;;;;26.03;45.94;100796.63;1750896;82;21126;-75
2023/09/24 09:50:32;;;;;;;14.25;6.30;;;;;;;26.04;45.89;100801.11;1751152;82;21169;-77
2023/09/24 09:53:07;;;;;;;9.88;5.55;;;;;;;26.04;45.90;100802.52;1750910;82;21127;-76
2023/09/24 09:55:39;;;;;;;10.03;5.85;;;;;;;26.07;46.04;100799.69;1750916;82;21175;-76
2023/09/24 09:58:10;;;;;;;8.63;5.25;;;;;;;26.09;45.92;100798.27;1750769;82;21642;-76
2023/09/24 10:00:40;;;;;;;11.53;5.40;;;;;;;26.12;45.84;100801.89;1748769;82;21170;-76
2023/09/24 10:03:11;;;;;;;13.15;5.22;;;;;;;26.14;45.44;100795.98;1748892;82;21167;-76
2023/09/24 10:05:40;;;;;;;9.88;4.92;;;;;;;26.15;45.33;100801.31;1745320;82;21150;-77
2023/09/24 10:08:45;;;;;;;10.90;5.35;;;;;;;26.19;45.48;100802.41;1814586;79;21154;-76
2023/09/24 10:11:39;;;;;;;10.58;5.00;;;;;;;26.18;45.23;100799.33;1814791;79;21130;-76
2023/09/24 10:14:08;;;;;;;11.65;5.08;;;;;;;26.18;45.10;100797.92;1814811;79;21170;-75
2023/09/24 10:16:39;;;;;;;9.05;4.75;;;;;;;26.18;45.39;100797.92;1814592;79;21107;-78
2023/09/24 10:19:13;;;;;;;9.35;4.95;;;;;;;26.21;45.11;100795.94;1814493;79;21146;-78
2023/09/24 10:21:44;;;;;;;10.45;4.80;;;;;;;26.22;44.97;100801.82;1814410;79;21162;-79
2023/09/24 10:24:18;;;;;;;8.23;4.75;;;;;;;26.22;45.03;100796.20;1814589;79;21146;-80
2023/09/24 10:27:06;;;;;;;6.72;4.28;;;;;;;26.21;44.77;100795.09;1745140;82;21594;-80
2023/09/24 10:29:55;;;;;;;8.98;4.50;;;;;;;26.19;44.46;100802.97;1814396;79;21388;-76
2023/09/24 10:32:26;;;;;;;10.70;4.58;;;;;;;26.17;44.36;100794.84;1814788;79;21558;-74
2023/09/24 10:35:06;;;;;;;9.58;4.40;;;;;;;26.17;44.47;100797.64;1814834;79;21655;-78
2023/09/24 10:37:37;;;;;;;8.00;4.25;;;;;;;26.18;44.31;100793.70;1745549;82;21170;-75
2023/09/24 10:40:12;;;;;;;7.85;4.53;;;;;;;26.20;43.88;100795.66;1798346;79;21140;-76
2023/09/24 10:42:44;;;;;;;7.15;4.03;;;;;;;26.25;43.82;100796.19;1782546;80;21132;-77
2023/09/24 10:45:18;;;;;;;6.87;3.92;;;;;;;26.27;43.54;100798.70;1782496;80;21163;-76
2023/09/24 10:47:48;;;;;;;9.03;3.90;;;;;;;26.26;43.47;100794.22;1782399;80;21591;-76
2023/09/24 10:50:23;;;;;;;8.13;3.85;;;;;;;26.27;43.45;100790.27;1782765;80;21168;-75
2023/09/24 10:53:00;;;;;;;8.70;4.10;;;;;;;26.25;43.03;100784.95;1782540;80;21605;-76
2023/09/24 10:55:36;;;;;;;11.38;3.85;;;;;;;26.27;43.19;100789.70;1782744;80;21092;-77
2023/09/24 10:58:15;;;;;;;10.35;4.12;;;;;;;26.31;43.18;100792.77;1782587;80;21566;-75
2023/09/24 11:00:48;;;;;;;7.20;4.05;;;;;;;26.33;43.14;100794.75;1782503;80;21563;-76
2023/09/24 11:03:18;;;;;;;8.83;4.00;;;;;;;26.33;43.05;100789.13;1753883;80;21195;-78
2023/09/24 11:05:48;;;;;;;10.75;4.20;;;;;;;26.33;42.91;100784.92;1784992;80;21136;-75
2023/09/24 11:08:19;;;;;;;16.50;4.30;;;;;;;26.34;42.89;100782.37;1784769;80;21649;-76
2023/09/24 11:10:49;;;;;;;8.43;4.10;;;;;;;26.37;42.73;100784.61;1784929;80;21144;-77
2023/09/24 11:13:21;;;;;;;8.13;3.98;;;;;;;26.36;42.69;100782.36;1784833;80;21116;-76
2023/09/24 11:15:50;;;;;;;7.47;3.77;;;;;;;26.34;42.49;100776.20;1731706;80;21621;-77
2023/09/24 11:18:19;;;;;;;9.00;4.20;;;;;;;26.37;42.55;100781.23;1784845;80;21621;-76
2023/09/24 11:20:50;;;;;;;9.63;4.15;;;;;;;26.41;42.62;100778.66;1784887;80;21202;-76
2023/09/24 11:23:20;;;;;;;8.73;4.05;;;;;;;26.46;42.65;100782.27;1784629;80;21168;-76
2023/09/24 11:25:51;;;;;;;10.53;4.40;;;;;;;26.52;42.28;100777.45;1784725;80;21163;-77
2023/09/24 11:28:30;;;;;;;9.13;3.52;;;;;;;26.57;42.30;100772.34;1785027;80;21112;-76
2023/09/24 11:31:00;;;;;;;8.53;4.25;;;;;;;26.59;42.10;100773.72;1784728;80;21199;-77
2023/09/24 11:33:30;;;;;;;9.40;3.92;;;;;;;26.60;41.75;100766.13;1786788;79;21562;-75